This is the latest recevied weather packets stored in our database for station/object KD5BIG-13. If no packets are shown the sender has not sent any weather packets the latest 10 day(s).
| Time | Temp. | Humidity | Pressure | Rain* | Wind** | Luminosity | Snow |
|---|---|---|---|---|---|---|---|
| 1777642910 | 15.56° C | 97% | 1018.8 hPa | 3.05 mm | - | 63 W/m² | - |
| 1777642607 | 15.56° C | 97% | 1018.9 hPa | 3.56 mm | - | 51 W/m² | - |
| 1777642304 | 15.56° C | 97% | 1018.8 hPa | 3.05 mm | - | 37 W/m² | - |
| 1777642000 | 15.56° C | 97% | 1018.8 hPa | 2.29 mm | - | 21 W/m² | - |
| 1777641696 | 15.56° C | 97% | 1018.4 hPa | 2.29 mm | - | 39 W/m² | - |
| 1777641391 | 15.56° C | 97% | 1018.6 hPa | 1.78 mm | - | 36 W/m² | - |
| 1777641086 | 15.56° C | 97% | 1018.2 hPa | 2.29 mm | - | 41 W/m² | - |
| 1777640783 | 15.56° C | 97% | 1018.2 hPa | 1.78 mm | - | 24 W/m² | - |
| 1777640480 | 15.56° C | 97% | 1018.2 hPa | 1.27 mm | - | 24 W/m² | - |
| 1777640177 | 15.56° C | 97% | 1017.9 hPa | 1.78 mm | - | 32 W/m² | - |
| 1777639874 | 15.56° C | 96% | 1018 hPa | 1.27 mm | - | 26 W/m² | - |
| 1777639571 | 15.56° C | 96% | 1018.1 hPa | 2.29 mm | - | 19 W/m² | - |
| 1777639268 | 15.56° C | 96% | 1018 hPa | 1.78 mm | - | 16 W/m² | - |
| 1777638964 | 15.56° C | 96% | 1018.1 hPa | 1.27 mm | - | 17 W/m² | - |
| 1777638660 | 15.56° C | 96% | 1018.1 hPa | 1.27 mm | - | 13 W/m² | - |
| 1777638356 | 15.56° C | 96% | 1018.1 hPa | 0.51 mm | - | 9 W/m² | - |
| 1777638052 | 15.56° C | 96% | 1018.1 hPa | 0 mm | - | 10 W/m² | - |
| 1777637749 | 15.56° C | 97% | 1017.9 hPa | 0 mm | - | 10 W/m² | - |
| 1777637445 | 15.56° C | 97% | 1017.7 hPa | 0 mm | - | 8 W/m² | - |
| 1777637143 | 15.56° C | 97% | 1017.7 hPa | 0 mm | - | 8 W/m² | - |
| 1777636839 | 15.56° C | 97% | 1017.4 hPa | 0 mm | - | 9 W/m² | - |
| 1777636535 | 15.56° C | 97% | 1017.2 hPa | 0 mm | - | 4 W/m² | - |
| 1777636232 | 15.56° C | 97% | 1017.2 hPa | 0 mm | - | 3 W/m² | - |
| 1777635932 | 15.56° C | 97% | 1017.1 hPa | 0 mm | - | 3 W/m² | - |
| 1777635628 | 15.56° C | 97% | 1017.1 hPa | 0.51 mm | - | 2 W/m² | - |
* Rain latest hour (hover to see other rain measurements)
** Current wind speed in m/s (hover to see current wind gust speed)